LDSB/BWK METAR and TAF weather

Enter ICAO airport designator
Station Type Date Time Source
LDSB METAR 2019/10/28 15:00 UTC NOAA

LDSB 281500Z 00000KT CAVOK 18/11 Q1015


Station Type Date Time Source
LDSB Decoded METAR 2019/10/28 15:00 UTC NOAA

Brac, Croatia (LDSB) 43-17-09N 016-40-47E
Oct 28, 2019 - 11:00 AM EDT / 2019.10.28 1500 UTC
Wind: Calm:0
Visibility: greater than 7 mile(s):0
Temperature: 64 F (18 C)
Dew Point: 51 F (11 C)
Relative Humidity: 63%
Pressure (altimeter): 29.97 in. Hg (1015 hPa)
ob: LDSB 281500Z 00000KT CAVOK 18/11 Q1015
cycle: 15

Station Type Date Time Source
LDSB TAF 2019/10/28 16:24 UTC NOAA

TAF
AMD TAF
AMD LDSB 281620Z 2816/2912 CNL

Example: see airport list